createdAt,value
2018-09-24T00:01:44.730Z,11.30
2018-09-24T00:04:19.473Z,11.30
2018-09-24T00:06:54.215Z,11.30
2018-09-24T00:09:28.851Z,11.50
2018-09-24T00:12:03.631Z,11.70
2018-09-24T00:14:38.268Z,11.90
2018-09-24T00:17:13.019Z,12.00
2018-09-24T00:19:47.702Z,12.10
2018-09-24T00:22:22.178Z,12.30
2018-09-24T00:24:57.037Z,12.50
2018-09-24T00:27:31.468Z,12.60
2018-09-24T00:30:06.702Z,12.60
2018-09-24T00:32:42.225Z,12.80
2018-09-24T00:35:16.886Z,12.90
2018-09-24T00:37:51.508Z,13.00
2018-09-24T00:40:26.294Z,13.00
2018-09-24T00:43:01.085Z,12.90
2018-09-24T00:45:35.647Z,12.60
2018-09-24T00:48:10.747Z,12.40
2018-09-24T00:50:45.454Z,12.20
2018-09-24T00:53:20.284Z,11.90
2018-09-24T00:55:55.055Z,11.90
2018-09-24T00:58:29.748Z,11.80
2018-09-24T01:01:04.620Z,11.60
2018-09-24T01:03:39.379Z,11.70
2018-09-24T01:06:13.988Z,11.70
2018-09-24T01:08:48.683Z,11.50
2018-09-24T01:11:23.554Z,11.50
2018-09-24T01:13:58.295Z,11.40
2018-09-24T01:16:32.840Z,11.30
2018-09-24T01:19:07.625Z,11.10
2018-09-24T01:21:42.133Z,11.00
2018-09-24T01:24:16.874Z,11.00
2018-09-24T01:26:51.182Z,10.90
2018-09-24T01:29:26.035Z,11.00
2018-09-24T01:32:01.295Z,11.10
2018-09-24T01:34:36.116Z,11.20
2018-09-24T01:37:10.762Z,11.20
2018-09-24T01:39:45.730Z,11.10
2018-09-24T01:42:20.496Z,11.10
2018-09-24T01:44:55.276Z,11.10
2018-09-24T01:47:29.817Z,11.10
2018-09-24T01:50:04.560Z,10.90
2018-09-24T01:52:39.402Z,10.60
2018-09-24T01:55:14.152Z,10.60
2018-09-24T01:57:48.859Z,10.60
2018-09-24T02:00:23.344Z,10.70
2018-09-24T02:02:57.784Z,10.70
2018-09-24T02:05:32.591Z,10.80
2018-09-24T02:08:07.529Z,10.80
2018-09-24T02:10:42.093Z,10.80
2018-09-24T02:13:17.051Z,10.90
2018-09-24T02:15:53.420Z,11.00
2018-09-24T02:18:28.075Z,11.10
2018-09-24T02:21:02.500Z,11.00
2018-09-24T02:23:37.142Z,10.90
2018-09-24T02:26:11.744Z,10.80
2018-09-24T02:28:46.404Z,10.60
2018-09-24T02:31:20.995Z,10.60
2018-09-24T02:33:55.794Z,10.90
2018-09-24T02:36:30.409Z,10.70
2018-09-24T02:39:06.993Z,10.50
2018-09-24T02:41:41.395Z,10.10
2018-09-24T02:46:59.100Z,10.00
2018-09-24T02:49:33.756Z,10.20
2018-09-24T02:52:08.775Z,10.30
2018-09-24T02:54:43.480Z,10.40
2018-09-24T02:57:18.342Z,10.50
2018-09-24T02:59:53.746Z,10.40
2018-09-24T03:02:28.531Z,10.30
2018-09-24T03:05:03.319Z,10.10
2018-09-24T03:07:38.247Z,10.00
2018-09-24T03:10:13.074Z,10.00
2018-09-24T03:12:50.239Z,10.10
2018-09-24T03:15:24.932Z,10.10
2018-09-24T03:17:59.670Z,10.00
2018-09-24T03:20:39.509Z,10.00
2018-09-24T03:23:14.250Z,10.00
2018-09-24T03:25:48.957Z,10.00
2018-09-24T03:28:23.845Z,9.80
2018-09-24T03:30:58.813Z,9.90
2018-09-24T03:33:34.731Z,9.90
2018-09-24T03:36:09.409Z,10.00
2018-09-24T03:38:44.416Z,9.80
2018-09-24T03:41:19.091Z,9.70
2018-09-24T03:43:53.631Z,9.90
2018-09-24T03:46:28.159Z,9.90
2018-09-24T03:49:03.051Z,10.00
2018-09-24T03:51:37.706Z,10.10
2018-09-24T03:54:12.490Z,10.10
2018-09-24T03:56:47.148Z,10.30
2018-09-24T03:59:22.175Z,10.40
2018-09-24T04:01:56.808Z,10.40
2018-09-24T04:04:37.100Z,10.50
2018-09-24T04:07:17.302Z,10.30
2018-09-24T04:09:57.275Z,10.20
2018-09-24T04:12:37.355Z,10.30
2018-09-24T04:15:17.020Z,10.20
2018-09-24T04:17:56.987Z,10.10
2018-09-24T04:20:37.096Z,10.30
2018-09-24T04:23:17.207Z,10.40
2018-09-24T04:25:57.315Z,10.50
2018-09-24T04:28:37.680Z,10.60
2018-09-24T04:31:17.944Z,10.70
2018-09-24T04:33:57.886Z,10.70
2018-09-24T04:36:39.031Z,10.90
2018-09-24T04:39:19.074Z,10.80
2018-09-24T04:41:59.654Z,10.90
2018-09-24T04:44:39.554Z,10.80
2018-09-24T04:47:19.670Z,10.50
2018-09-24T04:49:59.691Z,10.30
2018-09-24T04:52:39.707Z,10.20
2018-09-24T04:55:20.165Z,10.10
2018-09-24T04:58:00.134Z,10.10
2018-09-24T05:00:40.084Z,10.00
2018-09-24T05:03:19.913Z,10.00
2018-09-24T05:05:59.741Z,10.00
2018-09-24T05:08:39.646Z,9.90
2018-09-24T05:11:19.627Z,10.00
2018-09-24T05:13:59.414Z,10.00
2018-09-24T05:16:39.442Z,10.00
2018-09-24T05:19:19.474Z,9.70
2018-09-24T05:21:59.655Z,9.70
2018-09-24T05:24:39.545Z,9.60
2018-09-24T05:27:19.563Z,9.60
2018-09-24T05:29:59.228Z,9.40
2018-09-24T05:32:39.020Z,9.50
2018-09-24T05:35:18.752Z,9.50
2018-09-24T05:37:58.530Z,9.40
2018-09-24T05:40:38.490Z,9.40
2018-09-24T05:43:18.381Z,9.20
2018-09-24T05:45:58.199Z,9.30
2018-09-24T05:48:38.514Z,9.20
2018-09-24T05:51:18.490Z,9.20
2018-09-24T05:53:58.454Z,9.30
2018-09-24T05:56:38.438Z,9.20
2018-09-24T05:59:18.232Z,9.10
2018-09-24T06:01:57.999Z,9.10
2018-09-24T06:04:37.853Z,9.10
2018-09-24T06:07:18.007Z,9.10
2018-09-24T06:09:57.815Z,9.10
2018-09-24T06:12:37.780Z,9.20
2018-09-24T06:15:18.038Z,9.10
2018-09-24T06:17:58.104Z,9.20
2018-09-24T06:20:38.392Z,9.30
2018-09-24T06:23:18.448Z,9.20
2018-09-24T06:25:58.407Z,9.30
2018-09-24T06:28:38.475Z,9.30
2018-09-24T06:31:18.474Z,9.40
2018-09-24T06:33:58.570Z,9.40
2018-09-24T06:36:38.470Z,9.30
2018-09-24T06:39:18.427Z,9.30
2018-09-24T06:41:58.589Z,9.40
2018-09-24T06:44:38.644Z,9.40
2018-09-24T06:47:18.711Z,9.30
2018-09-24T06:49:58.690Z,9.30
2018-09-24T06:52:38.376Z,9.30
2018-09-24T06:55:18.224Z,9.40
2018-09-24T06:57:58.226Z,9.50
2018-09-24T07:00:38.252Z,9.40
2018-09-24T07:03:18.138Z,9.40
2018-09-24T07:05:57.907Z,9.20
2018-09-24T07:08:37.681Z,9.30
2018-09-24T07:11:17.989Z,9.20
2018-09-24T07:13:57.849Z,9.00
2018-09-24T07:16:37.673Z,8.80
2018-09-24T07:19:17.630Z,8.90
2018-09-24T07:23:00.500Z,9.10
2018-09-24T07:25:40.613Z,9.30
2018-09-24T07:28:20.683Z,9.30
2018-09-24T07:31:00.777Z,9.20
2018-09-24T07:33:40.780Z,9.20
2018-09-24T07:36:20.781Z,9.30
2018-09-24T07:39:00.590Z,9.30
2018-09-24T07:41:40.775Z,9.30
2018-09-24T07:44:20.985Z,9.50
2018-09-24T07:47:00.828Z,9.60
2018-09-24T07:49:40.585Z,9.70
2018-09-24T07:52:20.669Z,9.70
2018-09-24T07:55:00.504Z,9.70
2018-09-24T07:57:40.626Z,9.70
2018-09-24T08:00:20.361Z,9.70
2018-09-24T08:03:00.238Z,9.60
2018-09-24T08:05:40.307Z,9.80
2018-09-24T08:08:20.214Z,9.70
2018-09-24T08:11:00.368Z,9.60
2018-09-24T08:13:40.380Z,9.60
2018-09-24T08:16:20.607Z,9.70
2018-09-24T08:19:00.841Z,9.80
2018-09-24T08:21:40.970Z,9.80
2018-09-24T08:24:21.263Z,9.90
2018-09-24T08:27:01.279Z,10.00
2018-09-24T08:29:41.420Z,9.80
2018-09-24T08:32:21.497Z,9.90
2018-09-24T08:35:01.465Z,9.90
2018-09-24T08:37:41.830Z,10.00
2018-09-24T08:40:21.942Z,9.70
2018-09-24T08:43:01.869Z,9.60
2018-09-24T08:45:41.866Z,9.80
2018-09-24T08:48:22.146Z,9.80
2018-09-24T08:51:02.002Z,9.80
2018-09-24T08:53:41.922Z,9.70
2018-09-24T08:56:21.934Z,9.50
2018-09-24T08:59:01.979Z,9.70
2018-09-24T09:01:42.005Z,9.50
2018-09-24T09:04:22.120Z,9.40
2018-09-24T09:07:02.271Z,9.30
2018-09-24T09:09:42.252Z,9.40
2018-09-24T09:12:22.390Z,9.40
2018-09-24T09:15:02.259Z,9.60
2018-09-24T09:17:42.350Z,9.60
2018-09-24T09:20:22.379Z,9.60
2018-09-24T09:23:02.623Z,9.50
2018-09-24T09:25:42.654Z,9.50
2018-09-24T09:28:22.629Z,9.80
2018-09-24T09:31:02.545Z,10.10
2018-09-24T09:33:42.576Z,10.10
2018-09-24T09:36:22.677Z,9.80
2018-09-24T09:39:02.775Z,9.30
2018-09-24T09:41:43.033Z,9.00
2018-09-24T09:44:23.115Z,9.10
2018-09-24T09:47:03.188Z,9.50
2018-09-24T09:49:43.216Z,9.80
2018-09-24T09:52:23.146Z,9.80
2018-09-24T09:55:03.311Z,9.90
2018-09-24T09:57:43.182Z,9.70
2018-09-24T10:00:23.289Z,9.90
2018-09-24T10:03:03.221Z,10.00
2018-09-24T10:05:43.330Z,9.90
2018-09-24T10:08:23.306Z,10.10
2018-09-24T10:11:03.373Z,10.00
2018-09-24T10:13:43.555Z,10.10
2018-09-24T10:16:23.608Z,10.20
2018-09-24T10:19:03.521Z,10.40
2018-09-24T10:21:43.572Z,10.40
2018-09-24T10:24:23.445Z,10.50
2018-09-24T10:27:03.474Z,10.60
2018-09-24T10:29:43.487Z,10.80
2018-09-24T10:32:23.416Z,10.80
2018-09-24T10:35:03.462Z,10.70
2018-09-24T10:37:43.354Z,10.60
2018-09-24T10:40:23.353Z,10.90
2018-09-24T10:43:03.433Z,11.20
2018-09-24T10:45:43.223Z,11.40
2018-09-24T10:48:23.069Z,11.00
2018-09-24T10:51:03.115Z,11.00
2018-09-24T10:53:42.931Z,11.20
2018-09-24T10:56:22.938Z,11.20
2018-09-24T10:59:02.709Z,11.20
2018-09-24T11:01:42.718Z,11.20
2018-09-24T11:05:47.016Z,11.40
2018-09-24T11:08:26.991Z,11.50
2018-09-24T11:11:07.264Z,11.60
2018-09-24T11:13:47.267Z,11.70
2018-09-24T11:16:27.276Z,11.50
2018-09-24T11:19:07.120Z,11.50
2018-09-24T11:21:47.147Z,11.40
2018-09-24T11:24:26.911Z,11.50
2018-09-24T11:27:06.815Z,11.50
2018-09-24T11:29:46.548Z,11.90
2018-09-24T11:32:26.696Z,12.20
2018-09-24T11:35:06.681Z,12.30
2018-09-24T11:37:46.645Z,12.40
2018-09-24T11:40:26.834Z,12.70
2018-09-24T11:43:06.725Z,12.70
2018-09-24T11:45:47.722Z,12.60
2018-09-24T11:48:27.758Z,12.50
2018-09-24T11:51:08.115Z,12.50
2018-09-24T11:53:48.183Z,12.50
2018-09-24T11:56:28.346Z,12.40
2018-09-24T11:59:08.406Z,12.40
2018-09-24T12:01:48.442Z,12.30
2018-09-24T12:04:28.789Z,12.40
2018-09-24T12:07:09.029Z,12.20
2018-09-24T12:09:49.057Z,12.10
2018-09-24T12:12:28.944Z,11.90
2018-09-24T12:15:09.254Z,12.00
2018-09-24T12:17:49.158Z,12.10
2018-09-24T12:20:28.864Z,12.20
2018-09-24T12:23:08.625Z,12.10
2018-09-24T12:25:48.566Z,12.40
2018-09-24T12:28:28.448Z,12.80
2018-09-24T12:31:08.330Z,13.00
2018-09-24T12:33:48.489Z,13.30
2018-09-24T12:36:29.035Z,13.30
2018-09-24T12:39:09.429Z,13.50
2018-09-24T12:41:49.356Z,13.50
2018-09-24T12:44:29.322Z,13.50
2018-09-24T12:47:09.343Z,13.40
2018-09-24T12:49:49.369Z,13.30
2018-09-24T12:52:29.480Z,13.50
2018-09-24T12:55:09.919Z,13.70
2018-09-24T12:57:49.926Z,13.70
2018-09-24T13:00:29.982Z,13.70
2018-09-24T13:03:10.032Z,13.80
2018-09-24T13:05:50.025Z,14.00
2018-09-24T13:08:30.159Z,14.10
2018-09-24T13:11:09.917Z,14.00
2018-09-24T13:13:49.999Z,13.70
2018-09-24T13:16:29.972Z,13.40
2018-09-24T13:19:10.041Z,13.40
2018-09-24T13:21:50.157Z,13.40
2018-09-24T13:24:30.211Z,13.50
2018-09-24T13:27:10.026Z,13.50
2018-09-24T13:29:49.941Z,13.50
2018-09-24T13:32:29.980Z,13.50
2018-09-24T13:35:10.024Z,13.50
2018-09-24T13:37:49.764Z,13.20
2018-09-24T13:40:29.745Z,13.10
2018-09-24T13:43:10.072Z,13.10
2018-09-24T13:45:49.862Z,13.20
2018-09-24T13:48:29.971Z,13.10
2018-09-24T13:51:09.972Z,13.00
2018-09-24T13:53:50.060Z,13.10
2018-09-24T13:56:30.126Z,13.20
2018-09-24T13:59:10.358Z,13.40
2018-09-24T14:01:50.364Z,13.50
2018-09-24T14:04:30.538Z,13.60
2018-09-24T14:07:10.683Z,13.80
2018-09-24T14:09:50.635Z,14.10
2018-09-24T14:12:30.768Z,14.10
2018-09-24T14:15:10.740Z,14.30
2018-09-24T14:17:50.664Z,14.30
2018-09-24T14:20:30.685Z,14.20
2018-09-24T14:23:10.711Z,14.20
2018-09-24T14:25:50.790Z,14.10
2018-09-24T14:28:30.966Z,13.90
2018-09-24T14:31:10.881Z,13.90
2018-09-24T14:33:50.911Z,13.90
2018-09-24T14:36:31.051Z,13.90
2018-09-24T14:39:13.084Z,13.90
2018-09-24T14:41:53.087Z,14.00
2018-09-24T14:44:32.946Z,14.10
2018-09-24T14:47:12.794Z,14.10
2018-09-24T14:49:52.938Z,14.00
2018-09-24T14:52:32.924Z,14.00
2018-09-24T14:55:12.811Z,14.00
2018-09-24T14:57:52.905Z,14.00
2018-09-24T15:00:32.946Z,13.90
2018-09-24T15:03:13.057Z,13.80
2018-09-24T15:05:52.981Z,13.80
2018-09-24T15:08:33.152Z,13.80
2018-09-24T15:11:13.128Z,13.90
2018-09-24T15:13:52.934Z,13.80
2018-09-24T15:16:33.163Z,13.70
2018-09-24T15:19:13.373Z,13.70
2018-09-24T15:21:53.448Z,13.80
2018-09-24T15:24:33.779Z,13.80
2018-09-24T15:27:13.872Z,13.90
2018-09-24T15:29:54.032Z,13.80
2018-09-24T15:32:34.213Z,13.70
2018-09-24T15:38:56.771Z,13.40
2018-09-24T15:41:37.166Z,13.50
2018-09-24T15:44:17.496Z,13.60
2018-09-24T15:46:57.585Z,13.60
2018-09-24T15:49:37.615Z,13.50
2018-09-24T15:52:17.661Z,13.30
2018-09-24T15:54:57.807Z,13.30
2018-09-24T15:57:37.826Z,13.30
2018-09-24T16:00:17.959Z,13.20
2018-09-24T16:02:57.871Z,13.30
2018-09-24T16:05:37.846Z,13.30
2018-09-24T16:08:17.762Z,13.30
2018-09-24T16:10:57.783Z,13.30
2018-09-24T16:13:37.988Z,13.40
2018-09-24T16:16:17.881Z,13.40
2018-09-24T16:18:57.599Z,13.40
2018-09-24T16:21:37.487Z,13.30
2018-09-24T16:24:17.624Z,13.30
2018-09-24T16:26:57.896Z,13.30
2018-09-24T16:29:37.915Z,13.30
2018-09-24T16:32:17.670Z,13.30
2018-09-24T16:34:57.716Z,13.20
2018-09-24T16:37:37.660Z,13.10
2018-09-24T16:40:17.507Z,13.10
2018-09-24T16:42:57.491Z,12.90
2018-09-24T16:45:37.514Z,12.70
2018-09-24T16:48:17.470Z,12.40
2018-09-24T16:50:57.464Z,12.20
2018-09-24T16:53:37.695Z,12.10
2018-09-24T16:56:17.733Z,12.10
2018-09-24T16:58:57.783Z,11.90
2018-09-24T17:01:37.739Z,11.90
2018-09-24T17:04:17.789Z,11.70
2018-09-24T17:06:58.142Z,11.80
2018-09-24T17:09:38.120Z,11.90
2018-09-24T17:12:18.399Z,12.10
2018-09-24T17:14:58.591Z,12.10
2018-09-24T17:17:38.805Z,12.10
2018-09-24T17:20:18.876Z,12.20
2018-09-24T17:22:58.860Z,12.20
2018-09-24T17:25:38.811Z,12.20
2018-09-24T17:28:18.860Z,12.10
2018-09-24T17:30:58.816Z,12.00
2018-09-24T17:33:38.873Z,12.00
2018-09-24T17:36:18.944Z,12.00
2018-09-24T17:38:58.965Z,11.90
2018-09-24T17:41:39.022Z,11.80
2018-09-24T17:44:18.807Z,11.70
2018-09-24T17:46:58.954Z,11.70
2018-09-24T17:49:38.951Z,11.50
2018-09-24T17:52:18.973Z,11.40
2018-09-24T17:54:59.038Z,11.20
2018-09-24T17:57:39.083Z,11.20
2018-09-24T18:00:19.002Z,11.00
2018-09-24T18:02:58.775Z,10.90
2018-09-24T18:05:38.593Z,10.70
2018-09-24T18:08:18.474Z,10.60
2018-09-24T18:10:58.448Z,10.30
2018-09-24T18:13:38.682Z,10.00
2018-09-24T18:16:18.926Z,9.70
2018-09-24T18:18:59.075Z,9.30
2018-09-24T18:21:39.142Z,9.20
2018-09-24T18:24:19.112Z,9.20
2018-09-24T18:26:59.060Z,9.40
2018-09-24T18:29:38.849Z,9.40
2018-09-24T18:32:18.804Z,9.40
2018-09-24T18:34:58.906Z,9.40
2018-09-24T18:37:38.826Z,9.40
2018-09-24T18:40:18.837Z,9.50
2018-09-24T18:42:58.991Z,9.60
2018-09-24T18:45:38.960Z,9.70
2018-09-24T18:48:18.852Z,9.70
2018-09-24T18:50:58.612Z,9.80
2018-09-24T18:53:38.361Z,9.80
2018-09-24T18:56:18.328Z,9.70
2018-09-24T18:58:58.088Z,9.50
2018-09-24T19:01:38.146Z,9.40
2018-09-24T19:04:18.263Z,9.30
2018-09-24T19:06:58.162Z,9.20
2018-09-24T19:09:37.981Z,9.30
2018-09-24T19:12:17.998Z,9.30
2018-09-24T19:14:57.939Z,9.30
2018-09-24T19:17:37.747Z,9.30
2018-09-24T19:20:17.654Z,9.30
2018-09-24T19:22:57.514Z,9.30
2018-09-24T19:25:37.464Z,9.30
2018-09-24T19:28:17.406Z,9.30
2018-09-24T19:30:57.160Z,9.20
2018-09-24T19:33:37.045Z,9.10
2018-09-24T19:36:17.097Z,9.20
2018-09-24T19:38:57.089Z,9.20
2018-09-24T19:41:37.286Z,9.10
2018-09-24T19:44:17.171Z,9.20
2018-09-24T19:46:57.065Z,8.90
2018-09-24T19:49:36.872Z,8.70
2018-09-24T19:52:16.909Z,8.80
2018-09-24T19:54:56.966Z,8.80
2018-09-24T19:57:37.023Z,8.90
2018-09-24T20:00:17.180Z,8.80
2018-09-24T20:02:57.220Z,8.70
2018-09-24T20:05:37.143Z,8.50
2018-09-24T20:08:17.071Z,8.40
2018-09-24T20:10:57.142Z,8.30
2018-09-24T20:13:36.939Z,8.20
2018-09-24T20:16:16.797Z,8.30
2018-09-24T20:18:56.528Z,8.40
2018-09-24T20:21:36.525Z,8.40
2018-09-24T20:24:16.736Z,8.50
2018-09-24T20:26:56.718Z,8.50
2018-09-24T20:29:36.811Z,8.30
2018-09-24T20:32:16.850Z,8.20
2018-09-24T20:34:56.631Z,8.20
2018-09-24T20:37:36.579Z,8.20
2018-09-24T20:40:16.334Z,8.30
2018-09-24T20:42:56.207Z,8.40
2018-09-24T20:45:36.102Z,8.30
2018-09-24T20:48:16.228Z,8.40
2018-09-24T20:50:56.026Z,8.40
2018-09-24T20:53:35.859Z,8.40
2018-09-24T20:56:15.715Z,8.40
2018-09-24T20:58:55.585Z,8.40
2018-09-24T21:01:35.491Z,8.40
2018-09-24T21:04:15.334Z,8.40
2018-09-24T21:06:55.213Z,8.40
2018-09-24T21:09:35.263Z,8.30
2018-09-24T21:12:15.127Z,8.30
2018-09-24T21:14:55.012Z,8.30
2018-09-24T21:17:34.913Z,8.10
2018-09-24T21:20:16.041Z,8.00
2018-09-24T21:22:55.791Z,8.00
2018-09-24T21:25:35.757Z,8.00
2018-09-24T21:28:15.464Z,7.70
2018-09-24T21:30:55.316Z,7.50
2018-09-24T21:33:35.183Z,7.40
2018-09-24T21:36:15.067Z,7.50
2018-09-24T21:38:54.988Z,7.60
2018-09-24T21:41:35.205Z,7.70
2018-09-24T21:44:15.295Z,7.70
2018-09-24T21:46:54.977Z,7.70
2018-09-24T21:49:34.814Z,7.80
2018-09-24T21:52:14.522Z,7.70
2018-09-24T21:54:54.391Z,7.70
2018-09-24T21:57:34.377Z,7.50
2018-09-24T22:00:14.388Z,7.40
2018-09-24T22:02:54.326Z,7.40
2018-09-24T22:05:34.387Z,7.40
2018-09-24T22:08:14.434Z,7.30
2018-09-24T22:10:54.398Z,7.40
2018-09-24T22:13:34.305Z,7.40
2018-09-24T22:16:14.391Z,7.50
2018-09-24T22:18:54.383Z,7.50
2018-09-24T22:21:34.071Z,7.60
2018-09-24T22:24:14.027Z,7.70
2018-09-24T22:26:53.868Z,7.60
2018-09-24T22:29:33.676Z,7.70
2018-09-24T22:32:13.654Z,7.60
2018-09-24T22:34:53.303Z,7.50
2018-09-24T22:37:33.139Z,7.50
2018-09-24T22:40:13.027Z,7.50
2018-09-24T22:42:52.960Z,7.50
2018-09-24T22:45:32.833Z,7.50
2018-09-24T22:48:12.652Z,7.50
2018-09-24T22:50:52.576Z,7.50
2018-09-24T22:53:32.499Z,7.50
2018-09-24T22:56:12.303Z,7.40
2018-09-24T22:58:52.247Z,7.40
2018-09-24T23:01:31.939Z,7.30
2018-09-24T23:04:12.301Z,7.30
2018-09-24T23:06:52.217Z,7.20
2018-09-24T23:09:31.780Z,7.20
2018-09-24T23:12:12.048Z,7.20
2018-09-24T23:14:51.920Z,7.20
2018-09-24T23:17:31.659Z,7.10
2018-09-24T23:20:11.454Z,6.90
2018-09-24T23:22:51.416Z,6.70
2018-09-24T23:25:31.313Z,6.60
2018-09-24T23:28:11.161Z,6.50
2018-09-24T23:30:51.126Z,6.50
2018-09-24T23:33:30.984Z,6.60
2018-09-24T23:36:10.857Z,6.60
2018-09-24T23:38:50.675Z,6.70
2018-09-24T23:41:30.624Z,6.70
2018-09-24T23:44:10.633Z,6.70
2018-09-24T23:46:50.447Z,6.80
2018-09-24T23:49:30.448Z,6.80
2018-09-24T23:52:10.617Z,6.80
2018-09-24T23:54:50.676Z,6.80
2018-09-24T23:57:30.554Z,6.70
